createdAt,value
2017-06-19T00:02:05.519Z,2.70
2017-06-19T00:04:31.814Z,2.80
2017-06-19T00:06:58.080Z,2.77
2017-06-19T00:09:24.349Z,2.40
2017-06-19T00:11:50.661Z,2.57
2017-06-19T00:14:17.946Z,2.73
2017-06-19T00:16:45.282Z,2.90
2017-06-19T00:19:11.587Z,3.27
2017-06-19T00:21:38.926Z,2.97
2017-06-19T00:24:05.190Z,3.00
2017-06-19T00:26:31.498Z,2.90
2017-06-19T00:28:57.774Z,3.43
2017-06-19T00:31:24.063Z,3.37
2017-06-19T00:33:50.373Z,3.23
2017-06-19T00:36:16.649Z,3.17
2017-06-19T00:38:42.953Z,3.00
2017-06-19T00:41:09.278Z,3.40
2017-06-19T00:43:35.570Z,3.43
2017-06-19T00:46:01.819Z,3.40
2017-06-19T00:48:28.137Z,3.83
2017-06-19T00:50:54.402Z,3.03
2017-06-19T00:53:20.697Z,2.70
2017-06-19T00:55:47.009Z,2.93
2017-06-19T00:58:13.321Z,3.30
2017-06-19T01:00:40.621Z,3.13
2017-06-19T01:03:06.918Z,3.40
2017-06-19T01:05:33.925Z,3.50
2017-06-19T01:08:00.177Z,3.80
2017-06-19T01:10:26.496Z,3.40
2017-06-19T01:12:52.750Z,2.93
2017-06-19T01:15:19.766Z,2.80
2017-06-19T01:17:46.073Z,3.60
2017-06-19T01:20:12.349Z,3.60
2017-06-19T01:22:38.614Z,3.53
2017-06-19T01:25:04.932Z,2.97
2017-06-19T01:27:31.193Z,3.00
2017-06-19T01:29:57.456Z,3.20
2017-06-19T01:32:23.785Z,3.23
2017-06-19T01:34:50.061Z,3.30
2017-06-19T01:37:16.330Z,3.70
2017-06-19T01:39:42.666Z,3.60
2017-06-19T01:42:08.975Z,3.53
2017-06-19T01:44:35.274Z,3.70
2017-06-19T01:47:01.593Z,3.10
2017-06-19T01:49:27.885Z,3.50
2017-06-19T01:51:54.169Z,3.40
2017-06-19T01:54:20.530Z,3.43
2017-06-19T01:56:46.838Z,3.37
2017-06-19T01:59:13.121Z,3.07
2017-06-19T02:01:40.437Z,2.90
2017-06-19T02:04:07.745Z,3.30
2017-06-19T02:06:34.014Z,3.67
2017-06-19T02:09:00.325Z,3.30
2017-06-19T02:11:26.619Z,3.30
2017-06-19T02:13:53.633Z,3.50
2017-06-19T02:16:19.940Z,3.63
2017-06-19T02:18:46.216Z,3.70
2017-06-19T02:21:12.501Z,3.20
2017-06-19T02:23:38.844Z,2.97
2017-06-19T02:26:05.110Z,4.10
2017-06-19T02:28:32.144Z,3.80
2017-06-19T02:30:58.458Z,3.50
2017-06-19T02:33:24.722Z,3.60
2017-06-19T02:35:50.978Z,3.93
2017-06-19T02:38:17.290Z,3.43
2017-06-19T02:40:43.557Z,4.10
2017-06-19T02:43:09.902Z,3.77
2017-06-19T02:45:36.178Z,4.30
2017-06-19T02:48:02.449Z,3.73
2017-06-19T02:50:28.774Z,3.53
2017-06-19T02:52:55.105Z,3.90
2017-06-19T02:55:21.377Z,4.50
2017-06-19T02:57:49.441Z,4.23
2017-06-19T03:00:15.710Z,4.23
2017-06-19T03:02:41.973Z,4.33
2017-06-19T03:05:08.307Z,4.90
2017-06-19T03:07:34.578Z,3.80
2017-06-19T03:10:13.130Z,4.03
2017-06-19T03:12:39.393Z,4.50
2017-06-19T03:15:05.661Z,4.23
2017-06-19T03:17:31.967Z,4.13
2017-06-19T03:19:58.226Z,4.20
2017-06-19T03:22:24.486Z,4.90
2017-06-19T03:24:50.830Z,4.20
2017-06-19T03:27:17.093Z,4.03
2017-06-19T03:29:43.359Z,4.87
2017-06-19T03:32:09.666Z,5.00
2017-06-19T03:34:36.944Z,4.63
2017-06-19T03:37:03.202Z,5.20
2017-06-19T03:39:29.525Z,4.53
2017-06-19T03:41:55.806Z,4.67
2017-06-19T03:44:22.064Z,4.60
2017-06-19T03:46:48.369Z,4.70
2017-06-19T03:49:14.625Z,4.43
2017-06-19T03:51:40.888Z,4.70
2017-06-19T03:54:07.183Z,4.63
2017-06-19T03:56:33.448Z,4.50
2017-06-19T03:58:59.722Z,4.10
2017-06-19T04:01:26.025Z,4.80
2017-06-19T04:03:52.287Z,5.10
2017-06-19T04:06:18.550Z,4.43
2017-06-19T04:08:45.873Z,5.33
2017-06-19T04:11:12.146Z,4.97
2017-06-19T04:13:38.413Z,4.20
2017-06-19T04:16:04.717Z,4.50
2017-06-19T04:18:30.984Z,4.53
2017-06-19T04:20:57.250Z,3.67
2017-06-19T04:23:23.556Z,4.43
2017-06-19T04:25:49.821Z,4.53
2017-06-19T04:28:16.837Z,4.77
2017-06-19T04:30:43.146Z,4.70
2017-06-19T04:33:09.411Z,4.60
2017-06-19T04:35:35.693Z,5.13
2017-06-19T04:38:03.030Z,4.67
2017-06-19T04:40:29.292Z,4.50
2017-06-19T04:42:55.561Z,4.10
2017-06-19T04:45:22.605Z,4.27
2017-06-19T04:47:49.866Z,4.77
2017-06-19T04:50:16.869Z,4.70
2017-06-19T04:52:43.182Z,5.53
2017-06-19T04:55:09.449Z,4.73
2017-06-19T04:57:35.729Z,4.40
2017-06-19T05:00:02.029Z,4.90
2017-06-19T05:02:29.025Z,4.30
2017-06-19T05:04:55.290Z,4.50
2017-06-19T05:07:21.608Z,4.50
2017-06-19T05:09:48.874Z,5.20
2017-06-19T05:12:15.143Z,3.90
2017-06-19T05:14:41.487Z,4.30
2017-06-19T05:17:07.780Z,4.60
2017-06-19T05:19:34.053Z,3.90
2017-06-19T05:22:00.374Z,4.37
2017-06-19T05:24:26.677Z,4.50
2017-06-19T05:26:52.978Z,4.60
2017-06-19T05:29:19.296Z,4.40
2017-06-19T05:31:45.591Z,3.67
2017-06-19T05:34:11.870Z,4.27
2017-06-19T05:36:39.221Z,3.77
2017-06-19T05:39:06.509Z,3.97
2017-06-19T05:41:32.785Z,3.80
2017-06-19T05:44:00.956Z,3.20
2017-06-19T05:46:29.150Z,3.27
2017-06-19T05:48:55.476Z,3.33
2017-06-19T05:51:21.867Z,3.40
2017-06-19T05:53:48.150Z,3.30
2017-06-19T05:56:15.525Z,3.33
2017-06-19T05:58:41.837Z,3.30
2017-06-19T06:01:08.105Z,2.67
2017-06-19T06:03:34.377Z,3.13
2017-06-19T06:06:00.690Z,3.53
2017-06-19T06:08:26.946Z,3.33
2017-06-19T06:10:53.193Z,2.90
2017-06-19T06:13:19.492Z,3.40
2017-06-19T06:15:45.745Z,3.60
2017-06-19T06:18:12.750Z,3.00
2017-06-19T06:20:39.045Z,3.23
2017-06-19T06:23:05.310Z,3.13
2017-06-19T06:25:31.583Z,2.97
2017-06-19T06:27:57.893Z,2.63
2017-06-19T06:30:24.142Z,2.37
2017-06-19T06:32:51.142Z,2.83
2017-06-19T06:35:17.762Z,2.83
2017-06-19T06:37:44.017Z,2.80
2017-06-19T06:40:10.321Z,2.80
2017-06-19T06:42:36.614Z,2.53
2017-06-19T06:45:02.877Z,2.87
2017-06-19T06:47:29.134Z,2.83
2017-06-19T06:49:55.434Z,2.57
2017-06-19T06:52:21.686Z,2.57
2017-06-19T06:54:47.933Z,1.97
2017-06-19T06:57:14.233Z,2.90
2017-06-19T06:59:41.509Z,2.73
2017-06-19T07:02:08.769Z,3.00
2017-06-19T07:04:35.074Z,2.60
2017-06-19T07:07:01.357Z,2.40
2017-06-19T07:09:27.611Z,2.87
2017-06-19T07:11:53.920Z,2.90
2017-06-19T07:14:20.173Z,2.70
2017-06-19T07:16:46.452Z,2.53
2017-06-19T07:19:13.089Z,2.63
2017-06-19T07:21:40.091Z,2.33
2017-06-19T07:24:06.353Z,2.40
2017-06-19T07:26:33.722Z,2.40
2017-06-19T07:29:00.746Z,3.03
2017-06-19T07:31:27.017Z,2.70
2017-06-19T07:33:53.639Z,2.50
2017-06-19T07:36:20.633Z,2.37
2017-06-19T07:38:46.892Z,2.70
2017-06-19T07:41:14.314Z,2.70
2017-06-19T07:43:40.568Z,2.50
2017-06-19T07:46:06.844Z,2.90
2017-06-19T07:48:33.450Z,2.20
2017-06-19T07:51:00.492Z,2.50
2017-06-19T07:53:26.745Z,2.07
2017-06-19T07:55:53.353Z,2.60
2017-06-19T07:58:19.622Z,2.50
2017-06-19T08:00:45.885Z,2.40
2017-06-19T08:03:13.409Z,2.80
2017-06-19T08:05:39.661Z,2.40
2017-06-19T08:08:05.917Z,2.30
2017-06-19T08:10:33.232Z,2.70
2017-06-19T08:12:59.493Z,2.60
2017-06-19T08:15:25.751Z,2.60
2017-06-19T08:17:53.037Z,2.53
2017-06-19T08:20:19.322Z,2.40
2017-06-19T08:22:45.603Z,2.40
2017-06-19T08:25:12.188Z,2.77
2017-06-19T08:27:39.245Z,2.70
2017-06-19T08:30:05.502Z,2.17
2017-06-19T08:32:32.837Z,2.47
2017-06-19T08:34:59.106Z,2.60
2017-06-19T08:37:25.366Z,2.43
2017-06-19T08:39:52.869Z,2.30
2017-06-19T08:42:19.118Z,2.20
2017-06-19T08:44:45.375Z,2.40
2017-06-19T08:47:11.929Z,2.23
2017-06-19T08:49:38.185Z,2.33
2017-06-19T08:52:04.432Z,2.40
2017-06-19T08:54:32.044Z,2.40
2017-06-19T08:56:59.041Z,2.07
2017-06-19T08:59:25.309Z,2.60
2017-06-19T09:01:52.726Z,2.20
2017-06-19T09:04:18.982Z,2.40
2017-06-19T09:06:45.230Z,2.10
2017-06-19T09:09:12.590Z,2.20
2017-06-19T09:11:39.590Z,2.70
2017-06-19T09:14:05.842Z,2.30
2017-06-19T09:16:32.390Z,2.30
2017-06-19T09:18:59.397Z,2.27
2017-06-19T09:21:25.657Z,2.60
2017-06-19T09:23:52.205Z,3.00
2017-06-19T09:26:18.457Z,2.87
2017-06-19T09:28:44.712Z,2.27
2017-06-19T09:31:11.305Z,2.27
2017-06-19T09:33:37.570Z,2.73
2017-06-19T09:36:03.825Z,2.60
2017-06-19T09:38:30.378Z,2.87
2017-06-19T09:40:56.626Z,2.33
2017-06-19T09:43:23.652Z,2.53
2017-06-19T09:45:51.138Z,2.80
2017-06-19T09:48:17.398Z,2.83
2017-06-19T09:50:43.661Z,2.50
2017-06-19T09:53:10.190Z,2.47
2017-06-19T09:55:36.435Z,2.30
2017-06-19T09:58:02.685Z,2.77
2017-06-19T10:00:29.310Z,2.33
2017-06-19T10:02:56.307Z,3.13
2017-06-19T10:05:22.582Z,2.33
2017-06-19T10:07:49.217Z,2.17
2017-06-19T10:10:15.489Z,2.50
2017-06-19T10:12:41.749Z,2.07
2017-06-19T10:15:09.202Z,2.43
2017-06-19T10:17:35.464Z,2.70
2017-06-19T10:20:02.484Z,2.60
2017-06-19T10:22:29.041Z,2.60
2017-06-19T10:24:56.037Z,2.57
2017-06-19T10:27:22.302Z,2.40
2017-06-19T10:29:48.849Z,2.70
2017-06-19T10:32:15.859Z,2.53
2017-06-19T10:34:42.116Z,2.80
2017-06-19T10:37:09.401Z,2.90
2017-06-19T10:39:35.690Z,2.40
2017-06-19T10:42:01.949Z,2.67
2017-06-19T10:44:29.262Z,2.40
2017-06-19T10:46:55.525Z,2.20
2017-06-19T10:49:22.529Z,2.60
2017-06-19T10:51:50.226Z,2.77
2017-06-19T10:54:17.216Z,2.40
2017-06-19T10:56:43.474Z,2.43
2017-06-19T10:59:10.041Z,2.53
2017-06-19T11:01:38.032Z,2.50
2017-06-19T11:04:04.891Z,2.47
2017-06-19T11:06:32.218Z,3.10
2017-06-19T11:08:58.470Z,2.97
2017-06-19T11:11:24.729Z,2.50
2017-06-19T11:13:51.325Z,2.67
2017-06-19T11:16:17.577Z,2.97
2017-06-19T11:18:44.044Z,2.83
2017-06-19T11:21:11.423Z,3.00
2017-06-19T11:23:37.681Z,2.97
2017-06-19T11:26:03.941Z,2.50
2017-06-19T11:28:30.533Z,2.87
2017-06-19T11:30:56.784Z,3.17
2017-06-19T11:33:23.036Z,2.70
2017-06-19T11:35:49.656Z,2.90
2017-06-19T11:38:15.934Z,2.83
2017-06-19T11:40:42.177Z,2.87
2017-06-19T11:43:08.797Z,2.90
2017-06-19T11:45:35.793Z,2.83
2017-06-19T11:48:02.056Z,2.90
2017-06-19T11:50:29.439Z,2.63
2017-06-19T11:52:55.690Z,3.23
2017-06-19T11:55:21.953Z,2.80
2017-06-19T11:57:48.505Z,2.93
2017-06-19T12:00:15.521Z,2.67
2017-06-19T12:02:41.813Z,2.70
2017-06-19T12:05:09.313Z,3.10
2017-06-19T12:07:35.574Z,3.20
2017-06-19T12:10:02.574Z,2.73
2017-06-19T12:12:29.098Z,3.00
2017-06-19T12:14:55.353Z,2.70
2017-06-19T12:17:21.608Z,2.90
2017-06-19T12:19:49.654Z,2.73
2017-06-19T12:22:15.913Z,3.43
2017-06-19T12:24:42.177Z,3.03
2017-06-19T12:27:09.629Z,2.83
2017-06-19T12:29:35.887Z,2.80
2017-06-19T12:32:02.142Z,2.90
2017-06-19T12:34:29.422Z,2.90
2017-06-19T12:36:55.678Z,3.07
2017-06-19T12:39:21.939Z,2.70
2017-06-19T12:41:48.502Z,2.70
2017-06-19T12:44:16.543Z,2.20
2017-06-19T12:46:43.826Z,2.20
2017-06-19T12:49:10.445Z,2.20
2017-06-19T12:51:37.445Z,2.30
2017-06-19T12:54:03.709Z,2.40
2017-06-19T12:56:30.281Z,2.27
2017-06-19T12:58:56.545Z,2.43
2017-06-19T13:01:22.829Z,2.20
2017-06-19T13:03:49.464Z,2.70
2017-06-19T13:06:16.465Z,1.87
2017-06-19T13:08:42.729Z,2.07
2017-06-19T13:11:10.077Z,2.23
2017-06-19T13:13:37.085Z,1.77
2017-06-19T13:16:03.334Z,2.57
2017-06-19T13:18:30.730Z,2.50
2017-06-19T13:20:57.006Z,2.07
2017-06-19T13:23:23.281Z,2.07
2017-06-19T13:25:50.681Z,2.13
2017-06-19T13:28:16.954Z,2.20
2017-06-19T13:30:43.957Z,2.67
2017-06-19T13:33:10.546Z,2.43
2017-06-19T13:35:36.805Z,2.30
2017-06-19T13:38:03.053Z,2.67
2017-06-19T13:40:29.617Z,2.13
2017-06-19T13:42:55.870Z,2.33
2017-06-19T13:45:22.130Z,2.53
2017-06-19T13:47:48.704Z,2.50
2017-06-19T13:50:14.968Z,2.33
2017-06-19T13:52:41.229Z,2.53
2017-06-19T13:55:07.765Z,2.47
2017-06-19T13:57:34.037Z,2.90
2017-06-19T14:00:00.294Z,2.73
2017-06-19T14:02:26.901Z,2.77
2017-06-19T14:04:53.898Z,2.67
2017-06-19T14:07:20.153Z,2.23
2017-06-19T14:09:47.529Z,2.77
2017-06-19T14:12:14.537Z,2.50
2017-06-19T14:14:40.808Z,2.70
2017-06-19T14:17:08.858Z,2.73
2017-06-19T14:19:35.109Z,2.70
2017-06-19T14:22:02.114Z,2.10
2017-06-19T14:24:28.695Z,2.33
2017-06-19T14:26:55.685Z,2.80
2017-06-19T14:29:22.981Z,2.53
2017-06-19T14:31:50.249Z,2.27
2017-06-19T14:34:16.523Z,2.20
2017-06-19T14:36:42.773Z,2.50
2017-06-19T14:39:10.192Z,2.57
2017-06-19T14:41:36.444Z,2.43
2017-06-19T14:44:02.717Z,2.37
2017-06-19T14:46:30.021Z,2.30
2017-06-19T14:48:56.277Z,2.20
2017-06-19T14:51:22.574Z,2.27
2017-06-19T14:53:49.157Z,2.47
2017-06-19T14:56:16.157Z,3.20
2017-06-19T14:58:42.430Z,2.47
2017-06-19T15:01:09.789Z,2.57
2017-06-19T15:03:36.789Z,2.67
2017-06-19T15:06:03.046Z,2.20
2017-06-19T15:08:29.692Z,2.13
2017-06-19T15:10:56.695Z,2.07
2017-06-19T15:13:22.984Z,2.03
2017-06-19T15:15:50.363Z,2.53
2017-06-19T15:18:16.633Z,2.23
2017-06-19T15:20:42.925Z,1.90
2017-06-19T15:23:09.526Z,2.20
2017-06-19T15:25:36.534Z,1.90
2017-06-19T15:28:02.792Z,2.23
2017-06-19T15:30:30.157Z,2.27
2017-06-19T15:32:57.178Z,1.90
2017-06-19T15:35:23.444Z,2.53
2017-06-19T15:37:50.066Z,2.40
2017-06-19T15:40:17.069Z,2.23
2017-06-19T15:42:43.326Z,2.53
2017-06-19T15:45:10.654Z,1.97
2017-06-19T15:47:36.900Z,2.67
2017-06-19T15:50:03.170Z,2.60
2017-06-19T15:52:29.790Z,2.70
2017-06-19T15:54:56.789Z,2.10
2017-06-19T15:57:23.050Z,2.83
2017-06-19T15:59:51.258Z,2.60
2017-06-19T16:02:17.521Z,1.90
2017-06-19T16:04:43.781Z,2.20
2017-06-19T16:07:11.264Z,1.70
2017-06-19T16:09:37.521Z,1.93
2017-06-19T16:12:03.777Z,2.23
2017-06-19T16:14:30.336Z,2.13
2017-06-19T16:16:57.333Z,2.03
2017-06-19T16:19:23.588Z,2.23
2017-06-19T16:21:50.149Z,2.10
2017-06-19T16:24:18.170Z,1.97
2017-06-19T16:26:44.422Z,2.20
2017-06-19T16:29:10.989Z,1.80
2017-06-19T16:31:37.248Z,2.00
2017-06-19T16:34:03.505Z,1.73
2017-06-19T16:36:30.062Z,2.30
2017-06-19T16:38:56.321Z,2.40
2017-06-19T16:41:22.582Z,2.10
2017-06-19T16:43:49.166Z,2.40
2017-06-19T16:46:16.160Z,2.37
2017-06-19T16:48:42.410Z,2.50
2017-06-19T16:51:08.979Z,2.37
2017-06-19T16:53:35.977Z,1.83
2017-06-19T16:56:02.231Z,1.77
2017-06-19T16:58:28.786Z,2.00
2017-06-19T17:00:55.777Z,1.80
2017-06-19T17:03:22.052Z,1.90
2017-06-19T17:05:50.241Z,2.30
2017-06-19T17:08:16.500Z,1.77
2017-06-19T17:10:42.761Z,2.10
2017-06-19T17:13:10.269Z,1.93
2017-06-19T17:15:36.525Z,2.30
2017-06-19T17:18:02.829Z,2.47
2017-06-19T17:20:29.361Z,2.37
2017-06-19T17:22:55.628Z,2.10
2017-06-19T17:25:21.899Z,2.73
2017-06-19T17:27:48.478Z,2.87
2017-06-19T17:30:14.734Z,2.80
2017-06-19T17:32:40.993Z,2.77
2017-06-19T17:35:07.621Z,2.37
2017-06-19T17:37:34.625Z,2.77
2017-06-19T17:40:01.294Z,3.03
2017-06-19T17:42:28.668Z,2.90
2017-06-19T17:44:55.669Z,2.90
2017-06-19T17:47:21.924Z,2.70
2017-06-19T17:49:48.579Z,2.70
2017-06-19T17:52:15.575Z,2.33
2017-06-19T17:54:41.841Z,2.83
2017-06-19T17:57:09.145Z,3.40
2017-06-19T17:59:35.401Z,2.73
2017-06-19T18:02:01.661Z,2.17
2017-06-19T18:04:29.022Z,2.60
2017-06-19T18:06:56.017Z,2.70
2017-06-19T18:09:22.289Z,2.60
2017-06-19T18:11:50.421Z,2.60
2017-06-19T18:14:16.681Z,2.70
2017-06-19T18:16:43.684Z,2.53
2017-06-19T18:19:10.618Z,2.83
2017-06-19T18:21:36.898Z,2.90
2017-06-19T18:24:03.164Z,3.37
2017-06-19T18:26:29.820Z,2.73
2017-06-19T18:28:56.077Z,2.57
2017-06-19T18:31:22.332Z,3.00
2017-06-19T18:33:50.549Z,3.30
2017-06-19T18:36:16.813Z,3.63
2017-06-19T18:38:43.080Z,2.90
2017-06-19T18:41:09.701Z,3.97
2017-06-19T18:43:37.777Z,2.93
2017-06-19T18:46:04.782Z,3.20
2017-06-19T18:48:31.457Z,3.33
2017-06-19T18:50:58.453Z,2.60
2017-06-19T18:53:24.705Z,3.10
2017-06-19T18:55:51.265Z,2.70
2017-06-19T18:58:18.265Z,3.10
2017-06-19T19:00:44.517Z,2.73
2017-06-19T19:03:11.212Z,2.60
2017-06-19T19:05:37.490Z,2.63
2017-06-19T19:08:03.747Z,2.80
2017-06-19T19:10:30.315Z,3.30
2017-06-19T19:12:56.578Z,3.20
2017-06-19T19:15:22.833Z,3.07
2017-06-19T19:17:50.182Z,3.40
2017-06-19T19:20:17.190Z,4.20
2017-06-19T19:22:43.466Z,2.90
2017-06-19T19:25:10.093Z,3.20
2017-06-19T19:27:37.093Z,3.80
2017-06-19T19:30:03.357Z,2.80
2017-06-19T19:32:30.726Z,3.10
2017-06-19T19:34:56.988Z,3.20
2017-06-19T19:37:23.265Z,3.10
2017-06-19T19:39:50.025Z,3.10
2017-06-19T19:42:17.018Z,2.83
2017-06-19T19:44:43.294Z,3.63
2017-06-19T19:47:11.586Z,3.27
2017-06-19T19:49:37.845Z,3.47
2017-06-19T19:52:04.105Z,3.10
2017-06-19T19:54:30.670Z,3.10
2017-06-19T19:56:57.670Z,3.37
2017-06-19T19:59:23.934Z,3.07
2017-06-19T20:01:50.577Z,3.10
2017-06-19T20:04:18.609Z,3.43
2017-06-19T20:06:44.862Z,3.23
2017-06-19T20:09:13.117Z,3.40
2017-06-19T20:11:39.384Z,3.70
2017-06-19T20:14:05.641Z,3.23
2017-06-19T20:16:33.173Z,3.33
2017-06-19T20:18:59.445Z,3.50
2017-06-19T20:21:25.737Z,3.50
2017-06-19T20:23:53.133Z,3.63
2017-06-19T20:26:19.407Z,3.47
2017-06-19T20:28:45.705Z,3.60
2017-06-19T20:31:12.406Z,3.80
2017-06-19T20:33:39.713Z,3.40
2017-06-19T20:36:05.974Z,3.63
2017-06-19T20:38:33.620Z,3.53
2017-06-19T20:40:59.900Z,3.80
2017-06-19T20:43:26.170Z,3.20
2017-06-19T20:45:53.477Z,3.70
2017-06-19T20:48:19.753Z,3.83
2017-06-19T20:50:46.032Z,3.83
2017-06-19T20:53:12.627Z,3.50
2017-06-19T20:55:39.629Z,3.53
2017-06-19T20:58:05.886Z,4.03
2017-06-19T21:00:33.201Z,4.00
2017-06-19T21:02:59.472Z,3.10
2017-06-19T21:05:26.484Z,3.40
2017-06-19T21:07:53.058Z,3.47
2017-06-19T21:10:19.324Z,3.40
2017-06-19T21:12:45.585Z,3.53
2017-06-19T21:15:12.158Z,3.70
2017-06-19T21:17:38.426Z,4.07
2017-06-19T21:20:04.690Z,3.50
2017-06-19T21:22:32.212Z,3.53
2017-06-19T21:24:58.466Z,3.47
2017-06-19T21:27:24.741Z,3.73
2017-06-19T21:29:51.363Z,3.73
2017-06-19T21:32:18.364Z,3.60
2017-06-19T21:34:44.620Z,3.67
2017-06-19T21:37:11.909Z,3.33
2017-06-19T21:39:38.179Z,3.80
2017-06-19T21:42:04.461Z,3.43
2017-06-19T21:44:31.963Z,3.63
2017-06-19T21:46:58.231Z,4.20
2017-06-19T21:49:25.233Z,4.00
2017-06-19T21:51:51.913Z,3.77
2017-06-19T21:54:18.920Z,4.00
2017-06-19T21:56:45.181Z,4.07
2017-06-19T21:59:12.477Z,4.27
2017-06-19T22:01:38.751Z,3.77
2017-06-19T22:04:05.022Z,4.30
2017-06-19T22:06:31.640Z,3.80
2017-06-19T22:08:58.634Z,4.10
2017-06-19T22:11:24.881Z,4.27
2017-06-19T22:13:51.548Z,3.67
2017-06-19T22:16:18.545Z,4.07
2017-06-19T22:18:44.818Z,3.53
2017-06-19T22:21:17.402Z,3.50
2017-06-19T22:23:45.414Z,3.30
2017-06-19T22:26:11.681Z,3.17
2017-06-19T22:28:39.745Z,3.50
2017-06-19T22:31:06.046Z,3.53
2017-06-19T22:33:32.313Z,3.70
2017-06-19T22:35:59.642Z,3.77
2017-06-19T22:38:25.905Z,3.43
2017-06-19T22:40:52.905Z,3.93
2017-06-19T22:43:19.497Z,3.27
2017-06-19T22:45:45.771Z,3.90
2017-06-19T22:48:12.031Z,3.80
2017-06-19T22:50:39.425Z,4.20
2017-06-19T22:53:05.704Z,4.40
2017-06-19T22:55:31.959Z,4.13
2017-06-19T22:57:59.312Z,4.07
2017-06-19T23:00:25.574Z,4.47
2017-06-19T23:02:51.827Z,4.50
2017-06-19T23:05:19.346Z,3.43
2017-06-19T23:07:45.617Z,3.80
2017-06-19T23:10:11.876Z,3.77
2017-06-19T23:12:39.246Z,4.23
2017-06-19T23:15:05.522Z,4.10
2017-06-19T23:17:31.782Z,5.20
2017-06-19T23:19:58.437Z,4.57
2017-06-19T23:22:24.736Z,3.80
2017-06-19T23:24:51.005Z,4.40
2017-06-19T23:27:17.553Z,4.47
2017-06-19T23:29:43.805Z,4.43
2017-06-19T23:32:10.067Z,4.60
2017-06-19T23:34:36.697Z,4.53
2017-06-19T23:37:02.985Z,4.53
2017-06-19T23:39:29.252Z,4.37
2017-06-19T23:41:55.821Z,4.03
2017-06-19T23:44:22.084Z,5.00
2017-06-19T23:46:48.337Z,4.60
2017-06-19T23:49:15.013Z,4.80
2017-06-19T23:51:42.027Z,5.00
2017-06-19T23:54:09.102Z,4.90
2017-06-19T23:56:37.394Z,4.73
2017-06-19T23:59:03.663Z,5.30
